createdAt,value
2023-04-28T00:01:41.997Z,101639.84
2023-04-28T00:03:47.150Z,101645.06
2023-04-28T00:05:50.760Z,101641.66
2023-04-28T00:07:54.160Z,101637.38
2023-04-28T00:09:58.008Z,101637.41
2023-04-28T00:12:02.729Z,101640.91
2023-04-28T00:14:06.358Z,101645.25
2023-04-28T00:16:09.816Z,101642.69
2023-04-28T00:18:13.280Z,101638.41
2023-04-28T00:20:18.269Z,101622.84
2023-04-28T00:22:21.973Z,101622.09
2023-04-28T00:24:25.534Z,101624.72
2023-04-28T00:26:28.997Z,101626.53
2023-04-28T00:28:34.646Z,101618.81
2023-04-28T00:30:38.732Z,101623.19
2023-04-28T00:32:42.141Z,101622.41
2023-04-28T00:34:45.587Z,101617.28
2023-04-28T00:36:50.448Z,101607.06
2023-04-28T00:38:53.783Z,101610.63
2023-04-28T00:40:57.248Z,101608.16
2023-04-28T00:43:00.689Z,101609.13
2023-04-28T00:45:06.623Z,101598.03
2023-04-28T00:47:10.550Z,101604.16
2023-04-28T00:49:14.110Z,101603.50
2023-04-28T00:51:18.821Z,101601.88
2023-04-28T00:53:23.706Z,101588.19
2023-04-28T00:55:29.193Z,101595.22
2023-04-28T00:57:32.989Z,101592.75
2023-04-28T00:59:36.870Z,101585.13
2023-04-28T01:01:41.848Z,101591.28
2023-04-28T01:03:45.799Z,101592.25
2023-04-28T01:05:50.048Z,101594.09
2023-04-28T01:07:54.234Z,101593.31
2023-04-28T01:09:59.195Z,101593.38
2023-04-28T01:12:07.869Z,101594.34
2023-04-28T01:14:31.592Z,101590.13
2023-04-28T01:16:34.360Z,101589.34
2023-04-28T01:18:39.925Z,101588.53
2023-04-28T01:20:43.675Z,101588.63
2023-04-28T01:22:47.288Z,101579.19
2023-04-28T01:24:52.214Z,101585.34
2023-04-28T01:26:55.635Z,101579.34
2023-04-28T01:28:59.292Z,101581.97
2023-04-28T01:31:02.699Z,101574.31
2023-04-28T01:33:06.132Z,101577.81
2023-04-28T01:35:10.068Z,101569.22
2023-04-28T01:37:13.598Z,101571.00
2023-04-28T01:39:17.253Z,101575.38
2023-04-28T01:41:22.473Z,101576.25
2023-04-28T01:43:25.933Z,101579.75
2023-04-28T01:45:29.371Z,101578.06
2023-04-28T01:47:32.775Z,101571.22
2023-04-28T01:49:36.178Z,101568.66
2023-04-28T01:51:40.710Z,101566.13
2023-04-28T01:53:44.966Z,101573.06
2023-04-28T01:55:49.193Z,101564.47
2023-04-28T01:57:55.005Z,101567.09
2023-04-28T01:59:59.666Z,101572.38
2023-04-28T02:02:03.709Z,101564.66
2023-04-28T02:04:07.291Z,101557.78
2023-04-28T02:06:12.964Z,101555.22
2023-04-28T02:08:16.622Z,101552.66
2023-04-28T02:10:23.335Z,101552.72
2023-04-28T02:12:26.735Z,101551.03
2023-04-28T02:14:32.343Z,101543.28
2023-04-28T02:16:35.804Z,101547.63
2023-04-28T02:18:39.514Z,101545.91
2023-04-28T02:20:43.059Z,101546.81
2023-04-28T02:22:46.819Z,101549.44
2023-04-28T02:24:50.400Z,101536.50
2023-04-28T02:26:53.842Z,101544.28
2023-04-28T02:28:57.220Z,101542.56
2023-04-28T02:31:08.844Z,101541.72
2023-04-28T02:33:12.670Z,101539.13
2023-04-28T02:35:16.527Z,101539.16
2023-04-28T02:37:20.727Z,101534.88
2023-04-28T02:39:27.267Z,101535.75
2023-04-28T02:41:34.775Z,101526.31
2023-04-28T02:43:39.037Z,101528.06
2023-04-28T02:45:42.526Z,101522.09
2023-04-28T02:47:47.336Z,101517.00
2023-04-28T02:49:50.767Z,101508.41
2023-04-28T02:51:54.324Z,101515.34
2023-04-28T02:53:57.750Z,101517.97
2023-04-28T02:56:02.258Z,101506.78
2023-04-28T02:58:06.422Z,101499.06
2023-04-28T03:00:11.702Z,101507.72
2023-04-28T03:02:23.336Z,101501.72
2023-04-28T03:04:28.702Z,101499.22
2023-04-28T03:06:32.245Z,101494.06
2023-04-28T03:08:36.572Z,101487.22
2023-04-28T03:10:39.966Z,101486.41
2023-04-28T03:12:43.426Z,101483.03
2023-04-28T03:14:46.836Z,101483.06
2023-04-28T03:16:50.363Z,101477.91
2023-04-28T03:18:53.925Z,101474.50
2023-04-28T03:20:58.780Z,101478.00
2023-04-28T03:23:03.797Z,101474.56
2023-04-28T03:25:07.760Z,101476.34
2023-04-28T03:27:18.006Z,101468.63
2023-04-28T03:29:21.379Z,101466.06
2023-04-28T03:31:24.785Z,101458.34
2023-04-28T03:33:28.403Z,101454.00
2023-04-28T03:35:32.279Z,101462.66
2023-04-28T03:37:37.197Z,101461.81
2023-04-28T03:39:40.679Z,101450.59
2023-04-28T03:41:44.249Z,101458.38
2023-04-28T03:44:06.684Z,101455.78
2023-04-28T03:46:17.707Z,101455.78
2023-04-28T03:48:21.616Z,101448.00
2023-04-28T03:50:26.693Z,101453.19
2023-04-28T03:52:31.274Z,101445.38
2023-04-28T03:54:36.180Z,101441.09
2023-04-28T03:56:39.876Z,101439.38
2023-04-28T03:58:43.300Z,101444.53
2023-04-28T04:00:46.735Z,101433.31
2023-04-28T04:02:50.359Z,101436.78
2023-04-28T04:04:54.403Z,101427.28
2023-04-28T04:06:57.958Z,101422.06
2023-04-28T04:09:01.672Z,101426.34
2023-04-28T04:11:06.657Z,101424.63
2023-04-28T04:13:10.071Z,101432.31
2023-04-28T04:15:13.667Z,101420.22
2023-04-28T04:17:19.619Z,101421.03
2023-04-28T04:19:24.176Z,101419.25
2023-04-28T04:21:31.858Z,101414.03
2023-04-28T04:23:35.401Z,101408.84
2023-04-28T04:25:38.841Z,101414.78
2023-04-28T04:27:44.367Z,101412.13
2023-04-28T04:29:47.871Z,101405.19
2023-04-28T04:31:51.941Z,101409.44
2023-04-28T04:33:55.405Z,101405.03
2023-04-28T04:35:58.839Z,101401.47
2023-04-28T04:38:02.806Z,101405.69
2023-04-28T04:40:08.604Z,101402.16
2023-04-28T04:42:25.289Z,101396.81
2023-04-28T04:44:45.092Z,101395.78
2023-04-28T04:46:57.314Z,101390.47
2023-04-28T04:49:00.915Z,101393.81
2023-04-28T04:51:04.447Z,101391.94
2023-04-28T04:53:11.694Z,101396.94
2023-04-28T04:55:17.480Z,101391.59
2023-04-28T04:57:21.219Z,101385.38
2023-04-28T04:59:42.552Z,101383.47
2023-04-28T05:01:51.890Z,101383.28
2023-04-28T05:03:55.472Z,101380.53
2023-04-28T05:05:59.138Z,101382.13
2023-04-28T05:08:12.490Z,101369.91
2023-04-28T05:10:15.943Z,101374.91
2023-04-28T05:12:19.989Z,101368.72
2023-04-28T05:14:23.620Z,101377.25
2023-04-28T05:16:28.228Z,101367.66
2023-04-28T05:18:44.617Z,101373.53
2023-04-28T05:20:48.577Z,101379.44
2023-04-28T05:22:54.471Z,101374.13
2023-04-28T05:24:58.150Z,101376.56
2023-04-28T05:27:03.048Z,101367.78
2023-04-28T05:29:06.476Z,101370.19
2023-04-28T05:31:09.911Z,101361.34
2023-04-28T05:33:14.010Z,101359.44
2023-04-28T05:35:20.491Z,101354.84
2023-04-28T05:37:23.997Z,101358.94
2023-04-28T05:39:27.764Z,101353.56
2023-04-28T05:41:33.958Z,101349.78
2023-04-28T05:43:37.380Z,101351.28
2023-04-28T05:45:41.330Z,101338.03
2023-04-28T05:47:44.923Z,101345.50
2023-04-28T05:49:48.358Z,101340.84
2023-04-28T05:51:53.197Z,101336.28
2023-04-28T05:53:56.867Z,101345.44
2023-04-28T05:56:00.567Z,101339.97
2023-04-28T05:58:03.957Z,101337.13
2023-04-28T06:00:08.671Z,101332.50
2023-04-28T06:02:16.971Z,101331.22
2023-04-28T06:04:20.965Z,101324.00
2023-04-28T06:06:26.092Z,101328.88
2023-04-28T06:08:31.697Z,101318.94
2023-04-28T06:10:35.155Z,101324.69
2023-04-28T06:12:39.909Z,101315.59
2023-04-28T06:14:43.502Z,101317.84
2023-04-28T06:16:46.932Z,101320.09
2023-04-28T06:18:50.691Z,101318.78
2023-04-28T06:20:56.056Z,101321.03
2023-04-28T06:22:59.634Z,101313.72
2023-04-28T06:25:04.587Z,101320.28
2023-04-28T06:27:16.270Z,101317.25
2023-04-28T06:29:20.638Z,101321.19
2023-04-28T06:31:24.317Z,101315.59
2023-04-28T06:33:30.048Z,101323.81
2023-04-28T06:35:35.786Z,101320.72
2023-04-28T06:37:39.260Z,101315.13
2023-04-28T06:39:42.661Z,101306.84
2023-04-28T06:41:47.393Z,101308.94
2023-04-28T06:43:51.742Z,101309.41
2023-04-28T06:46:01.092Z,101303.75
2023-04-28T06:48:04.575Z,101303.19
2023-04-28T06:50:08.982Z,101307.06
2023-04-28T06:52:14.373Z,101306.63
2023-04-28T06:54:18.644Z,101305.44
2023-04-28T06:56:22.369Z,101305.16
2023-04-28T06:58:27.156Z,101303.00
2023-04-28T07:00:30.587Z,101299.16
2023-04-28T07:02:34.116Z,101303.97
2023-04-28T07:04:37.694Z,101300.13
2023-04-28T07:06:41.184Z,101304.06
2023-04-28T07:08:45.522Z,101295.88
2023-04-28T07:10:48.919Z,101286.72
2023-04-28T07:12:53.130Z,101289.88
2023-04-28T07:14:57.887Z,101279.09
2023-04-28T07:17:01.294Z,101285.72
2023-04-28T07:19:04.701Z,101278.50
2023-04-28T07:21:08.124Z,101279.84
2023-04-28T07:23:12.904Z,101277.69
2023-04-28T07:25:16.447Z,101272.00
2023-04-28T07:27:19.980Z,101273.16
2023-04-28T07:29:23.391Z,101264.09
2023-04-28T07:31:29.250Z,101268.63
2023-04-28T07:33:32.602Z,101274.91
2023-04-28T07:35:36.030Z,101262.09
2023-04-28T07:37:39.544Z,101257.88
2023-04-28T07:39:42.933Z,101259.06
2023-04-28T07:41:46.423Z,101256.81
2023-04-28T07:43:49.843Z,101261.56
2023-04-28T07:45:54.758Z,101260.19
2023-04-28T07:47:59.685Z,101258.06
2023-04-28T07:50:05.148Z,101261.88
2023-04-28T07:52:08.532Z,101267.44
2023-04-28T07:54:12.013Z,101257.41
2023-04-28T07:56:16.148Z,101257.91
2023-04-28T07:58:19.676Z,101258.22
2023-04-28T08:00:23.377Z,101254.09
2023-04-28T08:02:27.478Z,101253.56
2023-04-28T08:04:34.125Z,101254.91
2023-04-28T08:06:38.022Z,101250.22
2023-04-28T08:08:41.816Z,101249.84
2023-04-28T08:10:45.347Z,101248.72
2023-04-28T08:12:48.888Z,101253.59
2023-04-28T08:14:52.385Z,101243.47
2023-04-28T08:16:56.229Z,101244.56
2023-04-28T08:19:00.523Z,101237.81
2023-04-28T08:21:05.813Z,101238.19
2023-04-28T08:23:09.335Z,101237.78
2023-04-28T08:25:13.057Z,101231.31
2023-04-28T08:27:16.707Z,101233.56
2023-04-28T08:29:20.097Z,101232.25
2023-04-28T08:31:23.966Z,101231.91
2023-04-28T08:33:27.355Z,101235.13
2023-04-28T08:35:31.373Z,101234.00
2023-04-28T08:37:36.647Z,101225.91
2023-04-28T08:39:40.088Z,101229.09
2023-04-28T08:41:43.501Z,101230.34
2023-04-28T08:43:47.014Z,101224.50
2023-04-28T08:45:50.489Z,101225.81
2023-04-28T08:47:56.216Z,101225.41
2023-04-28T08:50:05.372Z,101224.97
2023-04-28T08:52:14.594Z,101220.34
2023-04-28T08:54:26.557Z,101213.84
2023-04-28T08:56:34.685Z,101216.06
2023-04-28T08:58:38.616Z,101211.34
2023-04-28T09:00:41.954Z,101205.88
2023-04-28T09:02:45.480Z,101210.06
2023-04-28T09:04:49.195Z,101205.66
2023-04-28T09:06:52.742Z,101209.03
2023-04-28T09:08:56.125Z,101200.00
2023-04-28T09:11:18.243Z,101203.34
2023-04-28T09:13:27.048Z,101199.78
2023-04-28T09:15:33.877Z,101192.63
2023-04-28T09:17:49.841Z,101203.78
2023-04-28T09:19:53.459Z,101193.16
2023-04-28T09:21:58.392Z,101188.66
2023-04-28T09:24:01.816Z,101180.75
2023-04-28T09:26:07.854Z,101177.19
2023-04-28T09:28:23.393Z,101178.88
2023-04-28T09:30:41.328Z,101179.56
2023-04-28T09:32:44.989Z,101177.47
2023-04-28T09:34:50.308Z,101172.53
2023-04-28T09:36:53.802Z,101175.34
2023-04-28T09:38:59.325Z,101173.84
2023-04-28T09:41:03.928Z,101166.25
2023-04-28T09:43:26.269Z,101168.88
2023-04-28T09:45:42.590Z,101176.63
2023-04-28T09:47:48.376Z,101170.59
2023-04-28T09:49:59.870Z,101166.34
2023-04-28T09:52:14.424Z,101174.06
2023-04-28T09:54:18.880Z,101166.22
2023-04-28T09:56:23.395Z,101159.53
2023-04-28T09:58:29.202Z,101163.50
2023-04-28T10:00:35.863Z,101154.53
2023-04-28T10:02:43.900Z,101150.47
2023-04-28T10:04:49.437Z,101143.53
2023-04-28T10:06:53.355Z,101149.19
2023-04-28T10:08:58.668Z,101153.25
2023-04-28T10:11:03.109Z,101141.63
2023-04-28T10:13:06.910Z,101138.06
2023-04-28T10:15:14.557Z,101135.53
2023-04-28T10:17:19.024Z,101133.00
2023-04-28T10:19:22.432Z,101127.50
2023-04-28T10:21:28.271Z,101116.94
2023-04-28T10:24:11.656Z,101123.69
2023-04-28T10:26:18.449Z,101117.56
2023-04-28T10:28:25.440Z,101116.94
2023-04-28T10:30:33.033Z,101119.97
2023-04-28T10:32:39.398Z,101114.09
2023-04-28T10:34:43.071Z,101116.00
2023-04-28T10:36:53.018Z,101105.69
2023-04-28T10:39:14.896Z,101109.28
2023-04-28T10:41:35.708Z,101105.91
2023-04-28T10:43:40.988Z,101093.69
2023-04-28T10:46:06.502Z,101102.31
2023-04-28T10:48:10.120Z,101089.63
2023-04-28T10:50:13.611Z,101090.81
2023-04-28T10:52:50.103Z,101092.88
2023-04-28T10:55:26.979Z,101089.69
2023-04-28T10:57:30.468Z,101103.13
2023-04-28T10:59:33.799Z,101105.38
2023-04-28T11:01:40.497Z,101100.69
2023-04-28T11:03:51.810Z,101089.66
2023-04-28T11:06:20.705Z,101090.63
2023-04-28T11:08:33.340Z,101089.41
2023-04-28T11:11:09.985Z,101089.41
2023-04-28T11:13:35.079Z,101084.31
2023-04-28T11:15:39.392Z,101079.88
2023-04-28T11:17:44.308Z,101077.56
2023-04-28T11:19:48.817Z,101076.13
2023-04-28T11:21:53.180Z,101067.56
2023-04-28T11:23:56.662Z,101067.91
2023-04-28T11:26:00.169Z,101075.91
2023-04-28T11:28:07.088Z,101069.75
2023-04-28T11:30:22.381Z,101067.06
2023-04-28T11:32:29.912Z,101069.91
2023-04-28T11:34:35.187Z,101067.69
2023-04-28T11:36:40.065Z,101060.47
2023-04-28T11:38:47.122Z,101059.38
2023-04-28T11:41:00.389Z,101053.72
2023-04-28T11:43:04.644Z,101051.97
2023-04-28T11:45:13.873Z,101041.56
2023-04-28T11:47:17.285Z,101038.41
2023-04-28T11:49:21.355Z,101046.78
2023-04-28T11:51:34.166Z,101038.25
2023-04-28T11:53:44.145Z,101041.56
2023-04-28T11:55:47.659Z,101040.94
2023-04-28T11:57:51.018Z,101051.84
2023-04-28T11:59:54.475Z,101049.53
2023-04-28T12:02:00.333Z,101042.66
2023-04-28T12:04:03.949Z,101042.41
2023-04-28T12:06:07.468Z,101039.31
2023-04-28T12:08:12.243Z,101031.88
2023-04-28T12:10:17.708Z,101035.03
2023-04-28T12:12:45.128Z,101033.88
2023-04-28T12:14:57.461Z,101032.94
2023-04-28T12:17:01.351Z,101034.50
2023-04-28T12:19:08.016Z,101027.50
2023-04-28T12:21:23.003Z,101030.16
2023-04-28T12:23:34.263Z,101024.91
2023-04-28T12:25:45.292Z,101025.63
2023-04-28T12:28:02.613Z,101016.53
2023-04-28T12:30:25.540Z,101014.50
2023-04-28T12:32:43.545Z,101003.72
2023-04-28T12:34:48.298Z,100999.72
2023-04-28T12:36:52.904Z,101002.84
2023-04-28T12:38:57.902Z,101001.44
2023-04-28T12:41:01.809Z,100993.16
2023-04-28T12:43:05.247Z,100993.53
2023-04-28T12:45:09.811Z,100986.81
2023-04-28T12:47:13.231Z,100992.31
2023-04-28T12:49:16.765Z,100992.53
2023-04-28T12:51:20.386Z,100984.19
2023-04-28T12:53:23.761Z,100988.84
2023-04-28T12:55:28.790Z,100989.91
2023-04-28T12:57:32.421Z,100991.72
2023-04-28T12:59:36.126Z,100989.19
2023-04-28T13:01:39.952Z,100991.84
2023-04-28T13:03:44.437Z,100999.75
2023-04-28T13:05:48.272Z,100993.75
2023-04-28T13:07:52.593Z,100987.03
2023-04-28T13:09:57.239Z,100980.31
2023-04-28T13:12:03.604Z,100983.31
2023-04-28T13:14:07.273Z,100977.44
2023-04-28T13:16:10.625Z,100975.06
2023-04-28T13:18:14.124Z,100976.97
2023-04-28T13:20:17.635Z,100972.66
2023-04-28T13:22:21.869Z,100976.25
2023-04-28T13:24:25.314Z,100974.56
2023-04-28T13:26:28.800Z,100970.13
2023-04-28T13:28:33.602Z,100964.88
2023-04-28T13:30:37.022Z,100960.66
2023-04-28T13:32:40.698Z,100958.03
2023-04-28T13:34:44.309Z,100952.75
2023-04-28T13:36:51.006Z,100956.34
2023-04-28T13:38:54.367Z,100953.72
2023-04-28T13:40:57.814Z,100948.34
2023-04-28T13:43:01.266Z,100952.41
2023-04-28T13:45:06.998Z,100944.16
2023-04-28T13:47:11.157Z,100945.56
2023-04-28T13:49:14.601Z,100931.22
2023-04-28T13:51:17.964Z,100930.97
2023-04-28T13:53:21.399Z,100936.13
2023-04-28T13:55:27.944Z,100933.50
2023-04-28T13:57:31.572Z,100932.66
2023-04-28T13:59:36.087Z,100942.25
2023-04-28T14:01:41.116Z,100939.59
2023-04-28T14:03:44.930Z,100936.25
2023-04-28T14:05:49.950Z,100934.69
2023-04-28T14:07:55.489Z,100928.69
2023-04-28T14:09:58.968Z,100922.59
2023-04-28T14:12:08.454Z,100926.19
2023-04-28T14:14:13.404Z,100918.28
2023-04-28T14:16:19.771Z,100919.22
2023-04-28T14:18:25.224Z,100915.06
2023-04-28T14:20:30.598Z,100924.03
2023-04-28T14:22:34.060Z,100929.44
2023-04-28T14:24:39.848Z,100926.91
2023-04-28T14:26:44.082Z,100925.25
2023-04-28T14:28:47.988Z,100926.91
2023-04-28T14:30:51.530Z,100926.91
2023-04-28T14:32:55.133Z,100924.41
2023-04-28T14:35:00.033Z,100924.63
2023-04-28T14:37:03.472Z,100930.97
2023-04-28T14:39:08.279Z,100925.22
2023-04-28T14:41:12.238Z,100917.81
2023-04-28T14:43:15.666Z,100921.84
2023-04-28T14:45:19.297Z,100910.09
2023-04-28T14:47:22.737Z,100915.81
2023-04-28T14:49:28.428Z,100911.06
2023-04-28T14:51:33.596Z,100902.53
2023-04-28T14:53:37.003Z,100905.41
2023-04-28T14:55:42.554Z,100904.75
2023-04-28T14:57:49.369Z,100899.72
2023-04-28T14:59:53.635Z,100906.06
2023-04-28T15:01:58.146Z,100901.13
2023-04-28T15:04:02.214Z,100895.41
2023-04-28T15:06:07.043Z,100894.19
2023-04-28T15:08:13.977Z,100894.63
2023-04-28T15:10:19.342Z,100883.72
2023-04-28T15:12:22.754Z,100885.13
2023-04-28T15:14:26.200Z,100882.13
2023-04-28T15:16:29.802Z,100882.56
2023-04-28T15:18:33.337Z,100883.00
2023-04-28T15:20:38.406Z,100880.81
2023-04-28T15:22:44.613Z,100876.75
2023-04-28T15:24:52.509Z,100876.97
2023-04-28T15:26:56.631Z,100875.28
2023-04-28T15:29:00.858Z,100871.00
2023-04-28T15:31:05.050Z,100863.94
2023-04-28T15:33:08.679Z,100867.41
2023-04-28T15:35:15.134Z,100859.53
2023-04-28T15:37:41.502Z,100856.91
2023-04-28T15:39:46.643Z,100859.53
2023-04-28T15:41:52.485Z,100862.16
2023-04-28T15:43:57.375Z,100870.03
2023-04-28T15:46:04.943Z,100857.84
2023-04-28T15:48:10.201Z,100850.91
2023-04-28T15:50:14.173Z,100842.91
2023-04-28T15:52:18.129Z,100835.13
2023-04-28T15:54:21.550Z,100833.47
2023-04-28T15:56:25.042Z,100830.09
2023-04-28T15:58:29.870Z,100830.09
2023-04-28T16:00:34.220Z,100826.63
2023-04-28T16:02:39.496Z,100823.28
2023-04-28T16:04:43.797Z,100818.13
2023-04-28T16:06:48.102Z,100826.97
2023-04-28T16:08:51.563Z,100833.06
2023-04-28T16:10:55.072Z,100831.38
2023-04-28T16:12:59.008Z,100829.69
2023-04-28T16:15:04.514Z,100828.03
2023-04-28T16:17:09.101Z,100817.72
2023-04-28T16:19:12.972Z,100821.31
2023-04-28T16:21:18.108Z,100817.84
2023-04-28T16:23:21.590Z,100823.94
2023-04-28T16:25:25.155Z,100818.56
2023-04-28T16:27:28.523Z,100819.41
2023-04-28T16:29:33.160Z,100813.09
2023-04-28T16:31:38.009Z,100811.19
2023-04-28T16:33:43.978Z,100808.56
2023-04-28T16:35:55.787Z,100806.78
2023-04-28T16:37:59.245Z,100807.63
2023-04-28T16:40:03.600Z,100807.63
2023-04-28T16:42:07.341Z,100813.00
2023-04-28T16:44:11.289Z,100820.03
2023-04-28T16:46:15.940Z,100811.41
2023-04-28T16:48:21.984Z,100815.00
2023-04-28T16:50:25.499Z,100816.06
2023-04-28T16:52:28.956Z,100816.19
2023-04-28T16:54:33.685Z,100820.00
2023-04-28T16:56:39.092Z,100821.16
2023-04-28T16:58:42.524Z,100820.53
2023-04-28T17:00:45.917Z,100832.31
2023-04-28T17:02:49.655Z,100830.00
2023-04-28T17:04:54.466Z,100839.19
2023-04-28T17:06:58.241Z,100848.13
2023-04-28T17:09:02.049Z,100845.09
2023-04-28T17:11:06.338Z,100842.91
2023-04-28T17:13:10.200Z,100827.53
2023-04-28T17:15:17.217Z,100808.16
2023-04-28T17:17:21.064Z,100813.28
2023-04-28T17:19:24.797Z,100811.53
2023-04-28T17:21:30.127Z,100827.19
2023-04-28T17:23:33.517Z,100826.13
2023-04-28T17:25:39.126Z,100826.56
2023-04-28T17:27:42.595Z,100820.78
2023-04-28T17:29:46.449Z,100827.19
2023-04-28T17:31:50.117Z,100815.41
2023-04-28T17:33:55.233Z,100818.56
2023-04-28T17:35:59.303Z,100814.78
2023-04-28T17:38:07.197Z,100808.25
2023-04-28T17:40:12.742Z,100808.88
2023-04-28T17:42:16.575Z,100818.09
2023-04-28T17:44:21.070Z,100812.31
2023-04-28T17:46:25.039Z,100813.44
2023-04-28T17:48:28.633Z,100824.13
2023-04-28T17:50:33.134Z,100826.00
2023-04-28T17:52:40.236Z,100833.16
2023-04-28T17:54:46.322Z,100833.34
2023-04-28T17:56:50.773Z,100841.28
2023-04-28T17:58:55.678Z,100838.97
2023-04-28T18:01:03.335Z,100841.69
2023-04-28T18:03:09.025Z,100840.00
2023-04-28T18:05:12.882Z,100844.41
2023-04-28T18:07:16.911Z,100847.97
2023-04-28T18:09:20.323Z,100838.50
2023-04-28T18:11:27.165Z,100841.22
2023-04-28T18:13:32.698Z,100843.09
2023-04-28T18:15:37.762Z,100842.31
2023-04-28T18:17:41.232Z,100847.75
2023-04-28T18:19:45.388Z,100854.16
2023-04-28T18:21:48.767Z,100850.78
2023-04-28T18:23:52.149Z,100845.75
2023-04-28T18:25:55.498Z,100844.25
2023-04-28T18:28:00.592Z,100844.44
2023-04-28T18:30:04.677Z,100839.41
2023-04-28T18:32:08.506Z,100837.91
2023-04-28T18:34:12.372Z,100837.16
2023-04-28T18:36:16.280Z,100827.84
2023-04-28T18:38:20.445Z,100824.47
2023-04-28T18:40:24.065Z,100822.97
2023-04-28T18:42:28.389Z,100828.41
2023-04-28T18:44:33.337Z,100832.91
2023-04-28T18:46:37.246Z,100827.84
2023-04-28T18:48:41.354Z,100827.09
2023-04-28T18:50:45.183Z,100826.44
2023-04-28T18:52:48.741Z,100823.09
2023-04-28T18:54:52.198Z,100818.16
2023-04-28T18:56:55.634Z,100826.19
2023-04-28T18:58:59.720Z,100813.28
2023-04-28T19:01:04.950Z,100823.94
2023-04-28T19:03:08.835Z,100816.28
2023-04-28T19:05:13.890Z,100821.69
2023-04-28T19:07:18.393Z,100823.56
2023-04-28T19:09:22.115Z,100827.13
2023-04-28T19:11:25.911Z,100830.66
2023-04-28T19:13:29.250Z,100831.59
2023-04-28T19:15:33.089Z,100833.38
2023-04-28T19:17:38.014Z,100845.53
2023-04-28T19:19:41.862Z,100841.13
2023-04-28T19:21:45.998Z,100844.69
2023-04-28T19:23:49.876Z,100846.34
2023-04-28T19:25:53.266Z,100848.88
2023-04-28T19:27:56.955Z,100856.66
2023-04-28T19:30:00.682Z,100856.56
2023-04-28T19:32:04.273Z,100854.78
2023-04-28T19:34:09.328Z,100858.25
2023-04-28T19:36:12.790Z,100872.16
2023-04-28T19:38:16.993Z,100865.16
2023-04-28T19:40:20.812Z,100872.16
2023-04-28T19:42:24.686Z,100868.59
2023-04-28T19:44:28.345Z,100868.53
2023-04-28T19:46:32.082Z,100875.34
2023-04-28T19:48:35.768Z,100873.66
2023-04-28T19:50:40.614Z,100867.59
2023-04-28T19:52:44.493Z,100872.81
2023-04-28T19:54:48.433Z,100869.53
2023-04-28T19:56:52.216Z,100869.63
2023-04-28T19:58:55.611Z,100862.06
2023-04-28T20:00:59.164Z,100863.16
2023-04-28T20:03:02.935Z,100863.38
2023-04-28T20:05:07.317Z,100854.97
2023-04-28T20:07:12.278Z,100857.75
2023-04-28T20:09:15.673Z,100865.69
2023-04-28T20:11:19.675Z,100864.09
2023-04-28T20:13:23.386Z,100868.50
2023-04-28T20:15:26.762Z,100870.25
2023-04-28T20:17:30.213Z,100876.44
2023-04-28T20:19:34.980Z,100871.28
2023-04-28T20:21:39.702Z,100869.59
2023-04-28T20:23:45.084Z,100872.31
2023-04-28T20:25:48.829Z,100867.91
2023-04-28T20:27:52.193Z,100872.31
2023-04-28T20:29:56.389Z,100870.63
2023-04-28T20:31:59.937Z,100870.63
2023-04-28T20:34:05.552Z,100863.72
2023-04-28T20:36:09.407Z,100864.53
2023-04-28T20:38:12.883Z,100859.31
2023-04-28T20:40:17.892Z,100864.53
2023-04-28T20:42:21.445Z,100868.94
2023-04-28T20:44:24.907Z,100874.16
2023-04-28T20:46:28.391Z,100870.78
2023-04-28T20:48:31.990Z,100868.31
2023-04-28T20:50:39.530Z,100868.47
2023-04-28T20:52:43.273Z,100872.88
2023-04-28T20:54:46.995Z,100869.50
2023-04-28T20:56:51.763Z,100865.13
2023-04-28T20:58:55.977Z,100870.44
2023-04-28T21:00:59.372Z,100870.44
2023-04-28T21:03:04.711Z,100873.88
2023-04-28T21:05:09.126Z,100864.44
2023-04-28T21:07:12.524Z,100864.53
2023-04-28T21:09:16.324Z,100858.56
2023-04-28T21:11:20.218Z,100858.81
2023-04-28T21:13:25.047Z,100856.38
2023-04-28T21:15:28.905Z,100854.78
2023-04-28T21:17:32.392Z,100849.63
2023-04-28T21:19:36.118Z,100855.91
2023-04-28T21:21:39.581Z,100849.84
2023-04-28T21:23:43.199Z,100848.25
2023-04-28T21:25:46.876Z,100837.88
2023-04-28T21:27:50.625Z,100839.75
2023-04-28T21:29:55.431Z,100837.22
2023-04-28T21:31:58.865Z,100842.53
2023-04-28T21:34:02.235Z,100838.22
2023-04-28T21:36:07.482Z,100835.63
2023-04-28T21:38:11.029Z,100840.84
2023-04-28T21:40:14.771Z,100837.47
2023-04-28T21:42:18.133Z,100838.41
2023-04-28T21:44:21.637Z,100832.34
2023-04-28T21:46:26.478Z,100831.50
2023-04-28T21:48:29.901Z,100828.13
2023-04-28T21:50:33.758Z,100831.66
2023-04-28T21:52:38.543Z,100831.66
2023-04-28T21:54:42.044Z,100830.84
2023-04-28T21:56:46.624Z,100833.53
2023-04-28T21:58:50.048Z,100824.75
2023-04-28T22:00:55.116Z,100824.75
2023-04-28T22:03:00.726Z,100820.47
2023-04-28T22:05:04.281Z,100817.84
2023-04-28T22:07:07.788Z,100819.72
2023-04-28T22:09:11.308Z,100822.41
2023-04-28T22:11:14.958Z,100820.72
2023-04-28T22:13:18.472Z,100822.50
2023-04-28T22:15:22.549Z,100817.19
2023-04-28T22:17:26.088Z,100809.25
2023-04-28T22:19:30.877Z,100816.34
2023-04-28T22:21:34.909Z,100810.28
2023-04-28T22:23:38.439Z,100810.28
2023-04-28T22:25:42.405Z,100822.50
2023-04-28T22:27:45.855Z,100824.38
2023-04-28T22:29:49.870Z,100825.31
2023-04-28T22:31:53.695Z,100837.63
2023-04-28T22:33:57.561Z,100838.53
2023-04-28T22:36:03.062Z,100841.25
2023-04-28T22:38:06.663Z,100841.31
2023-04-28T22:40:11.310Z,100844.88
2023-04-28T22:42:14.860Z,100840.50
2023-04-28T22:44:18.632Z,100850.09
2023-04-28T22:46:22.593Z,100845.72
2023-04-28T22:48:26.161Z,100846.56
2023-04-28T22:50:31.392Z,100844.03
2023-04-28T22:52:36.708Z,100842.34
2023-04-28T22:54:40.088Z,100843.19
2023-04-28T22:56:43.464Z,100846.72
2023-04-28T22:58:46.833Z,100838.13
2023-04-28T23:00:50.253Z,100846.91
2023-04-28T23:02:53.747Z,100836.44
2023-04-28T23:04:57.504Z,100833.91
2023-04-28T23:07:00.977Z,100840.00
2023-04-28T23:09:05.867Z,100841.75
2023-04-28T23:11:09.431Z,100841.84
2023-04-28T23:13:12.930Z,100841.00
2023-04-28T23:15:16.313Z,100848.91
2023-04-28T23:17:19.756Z,100844.53
2023-04-28T23:19:23.171Z,100838.47
2023-04-28T23:21:28.432Z,100840.31
2023-04-28T23:23:32.714Z,100836.97
2023-04-28T23:25:37.890Z,100836.97
2023-04-28T23:27:41.233Z,100841.25
2023-04-28T23:29:44.628Z,100843.03
2023-04-28T23:31:52.602Z,100843.09
2023-04-28T23:33:56.204Z,100838.81
2023-04-28T23:35:59.711Z,100845.88
2023-04-28T23:38:03.132Z,100846.81
2023-04-28T23:40:07.838Z,100842.50
2023-04-28T23:42:12.562Z,100846.06
2023-04-28T23:44:15.969Z,100854.81
2023-04-28T23:46:19.653Z,100849.59
2023-04-28T23:48:23.324Z,100857.50
2023-04-28T23:50:27.885Z,100861.88